Time;durP1;ratioP1;P1;durP2;ratioP2;P2;SDS_P1;SDS_P2;PMS_P1;PMS_P2;Temp;Humidity;BMP_temperature;BMP_pressure;BME280_temperature;BME280_humidity;BME280_pressure;Samples;Min_cycle;Max_cycle;Signal;HPM_P1;HPM_P2
2023/05/23 00:01:07;;;;;;;10.68;6.53;;;;;;;16.90;100.00;101729.25;5036487;28;20179;-65
2023/05/23 00:03:36;;;;;;;11.05;6.65;;;;;;;16.90;100.00;101737.50;5035342;28;20042;-65
2023/05/23 00:06:06;;;;;;;13.60;6.82;;;;;;;16.81;99.98;101733.72;5053282;28;20041;-64
2023/05/23 00:08:33;;;;;;;10.07;6.43;;;;;;;16.74;100.00;101720.28;5052007;28;20053;-63
2023/05/23 00:11:01;;;;;;;11.82;7.10;;;;;;;16.74;100.00;101730.44;5056959;28;20102;-65
2023/05/23 00:13:32;;;;;;;11.82;6.93;;;;;;;16.74;100.00;101736.78;5055210;28;20150;-65
2023/05/23 00:16:01;;;;;;;10.88;6.88;;;;;;;16.71;100.00;101733.78;5038570;28;20057;-64
2023/05/23 00:18:29;;;;;;;10.98;7.07;;;;;;;16.67;100.00;101741.81;5049555;28;20450;-68
2023/05/23 00:20:58;;;;;;;10.52;6.70;;;;;;;16.67;100.00;101732.69;5041433;28;20041;-64
2023/05/23 00:23:28;;;;;;;10.40;6.85;;;;;;;16.70;100.00;101734.91;5036366;28;20397;-65
2023/05/23 00:25:57;;;;;;;11.85;6.50;;;;;;;16.71;99.88;101731.84;5036615;28;20104;-64
2023/05/23 00:28:25;;;;;;;15.38;7.20;;;;;;;16.68;99.19;101748.13;5045520;28;20045;-65
2023/05/23 00:30:52;;;;;;;13.30;6.68;;;;;;;16.62;99.90;101739.09;5055592;28;20063;-65
2023/05/23 00:33:21;;;;;;;11.77;7.40;;;;;;;16.65;99.71;101751.44;5064377;28;20071;-65
2023/05/23 00:35:49;;;;;;;13.10;6.82;;;;;;;16.58;99.49;101746.25;5058365;28;20041;-65
2023/05/23 00:38:18;;;;;;;11.35;6.50;;;;;;;16.51;99.71;101754.81;5066673;28;20094;-65
2023/05/23 00:40:48;;;;;;;13.50;6.88;;;;;;;16.52;99.85;101745.47;5021909;28;20071;-65
2023/05/23 00:43:17;;;;;;;14.48;7.15;;;;;;;16.55;99.06;101755.91;5070793;28;20511;-65
2023/05/23 00:45:44;;;;;;;13.18;6.88;;;;;;;16.53;99.32;101744.38;5065693;28;20410;-65
2023/05/23 00:48:12;;;;;;;12.32;6.90;;;;;;;16.52;98.87;101767.47;5037648;28;20708;-65
2023/05/23 00:50:41;;;;;;;15.15;7.22;;;;;;;16.50;98.31;101758.69;5037791;28;20092;-64
2023/05/23 00:53:09;;;;;;;14.20;7.38;;;;;;;16.46;98.81;101759.56;5065235;28;20079;-64
2023/05/23 00:55:38;;;;;;;12.00;6.95;;;;;;;16.45;98.87;101766.13;5057220;28;20443;-65
2023/05/23 00:58:06;;;;;;;12.10;7.40;;;;;;;16.39;98.13;101760.69;5021170;28;20051;-65
2023/05/23 01:00:34;;;;;;;14.82;7.72;;;;;;;16.35;97.76;101761.53;5037353;28;20049;-64
2023/05/23 01:03:03;;;;;;;14.32;7.55;;;;;;;16.29;98.10;101769.00;5060244;28;20473;-64
2023/05/23 01:05:31;;;;;;;13.25;7.55;;;;;;;16.21;98.34;101757.75;5062548;28;20083;-64
2023/05/23 01:08:02;;;;;;;17.50;8.65;;;;;;;16.07;99.60;101766.63;5036441;28;20477;-64
2023/05/23 01:10:30;;;;;;;16.17;8.15;;;;;;;16.05;100.00;101766.09;5054019;28;20053;-64
2023/05/23 01:13:07;;;;;;;16.83;8.63;;;;;;;16.04;100.00;101766.34;5071245;28;20084;-65
2023/05/23 01:15:53;;;;;;;16.98;9.40;;;;;;;16.03;100.00;101767.47;5053982;28;20144;-64
2023/05/23 01:18:26;;;;;;;17.23;8.65;;;;;;;15.97;100.00;101762.00;5054851;28;20416;-64
2023/05/23 01:20:58;;;;;;;15.98;8.30;;;;;;;16.01;100.00;101769.69;5053709;28;20079;-65
2023/05/23 01:23:46;;;;;;;18.48;9.40;;;;;;;16.00;100.00;101768.88;5017677;28;20065;-64
2023/05/23 01:26:37;;;;;;;19.48;8.27;;;;;;;16.01;100.00;101773.25;5040252;28;20459;-64
2023/05/23 01:29:11;;;;;;;19.23;8.40;;;;;;;15.98;100.00;101763.63;5043271;28;20466;-65
2023/05/23 01:31:44;;;;;;;18.25;8.85;;;;;;;15.95;100.00;101772.44;5043176;28;20114;-65
2023/05/23 01:34:17;;;;;;;17.38;8.93;;;;;;;15.94;100.00;101776.28;5041126;28;20044;-65
2023/05/23 01:36:46;;;;;;;20.23;9.10;;;;;;;15.86;100.00;101781.56;5058028;28;20053;-65
2023/05/23 01:39:13;;;;;;;16.63;8.77;;;;;;;15.77;100.00;101793.09;5022138;28;20049;-65
2023/05/23 01:41:41;;;;;;;17.15;8.70;;;;;;;15.78;100.00;101769.22;5023115;28;20466;-65
2023/05/23 01:44:09;;;;;;;19.15;8.63;;;;;;;15.75;100.00;101781.59;5043315;28;20056;-65
2023/05/23 01:46:38;;;;;;;18.58;8.85;;;;;;;15.82;100.00;101775.78;5029734;28;20045;-65
2023/05/23 01:49:07;;;;;;;18.65;8.35;;;;;;;15.83;100.00;101777.44;5067091;28;20070;-66
2023/05/23 01:51:35;;;;;;;17.77;9.75;;;;;;;15.82;100.00;101785.97;5059525;28;20045;-67
2023/05/23 01:54:03;;;;;;;20.08;8.98;;;;;;;15.74;100.00;101790.94;5069033;28;20048;-65
2023/05/23 01:56:31;;;;;;;16.23;7.97;;;;;;;15.61;100.00;101799.75;5061403;28;20044;-65
2023/05/23 01:59:01;;;;;;;16.52;7.63;;;;;;;15.61;100.00;101782.41;5045135;28;20072;-65
2023/05/23 02:01:29;;;;;;;14.77;7.20;;;;;;;15.63;100.00;101804.94;5043490;28;20041;-66
2023/05/23 02:03:58;;;;;;;17.67;7.90;;;;;;;15.61;100.00;101807.97;5041669;28;20050;-66
2023/05/23 02:06:25;;;;;;;15.52;7.35;;;;;;;15.56;100.00;101805.22;5024205;28;20445;-65
2023/05/23 02:08:53;;;;;;;12.63;6.57;;;;;;;15.56;100.00;101816.19;5055164;28;20056;-65
2023/05/23 02:11:21;;;;;;;13.60;7.03;;;;;;;15.52;100.00;101815.13;5038910;28;20045;-67
2023/05/23 02:13:50;;;;;;;13.00;6.80;;;;;;;15.50;100.00;101809.91;5054574;28;20076;-65
2023/05/23 02:16:18;;;;;;;13.50;6.60;;;;;;;15.56;100.00;101805.22;5052764;28;20110;-65
2023/05/23 02:18:46;;;;;;;12.27;6.70;;;;;;;15.58;100.00;101802.19;5045656;28;20392;-63
2023/05/23 02:21:13;;;;;;;13.45;7.25;;;;;;;15.55;100.00;101801.66;5037904;28;20037;-65
2023/05/23 02:23:41;;;;;;;13.35;6.60;;;;;;;15.61;100.00;101799.75;5036174;28;20080;-65
2023/05/23 02:26:09;;;;;;;15.25;7.72;;;;;;;15.64;100.00;101810.16;5036457;28;20072;-65
2023/05/23 02:28:36;;;;;;;15.77;8.63;;;;;;;15.59;100.00;101806.63;5051071;28;20102;-64
2023/05/23 02:31:04;;;;;;;15.63;8.18;;;;;;;15.59;100.00;101810.19;5053016;28;20408;-65
2023/05/23 02:33:32;;;;;;;16.00;8.20;;;;;;;15.59;100.00;101810.19;5052894;28;20045;-66
2023/05/23 02:36:01;;;;;;;16.67;9.27;;;;;;;15.61;100.00;101813.47;5052938;28;20049;-64
2023/05/23 02:38:31;;;;;;;16.05;9.05;;;;;;;15.55;100.00;101815.38;5053296;28;20390;-64
2023/05/23 02:40:59;;;;;;;19.35;10.35;;;;;;;15.45;100.00;101811.84;5042254;28;20116;-65
2023/05/23 02:43:27;;;;;;;13.93;8.25;;;;;;;15.42;100.00;101815.16;5033376;28;20049;-65
2023/05/23 02:45:55;;;;;;;13.90;8.73;;;;;;;15.43;100.00;101811.28;5015700;28;20137;-65
2023/05/23 02:48:24;;;;;;;15.75;8.82;;;;;;;15.40;100.00;101817.34;5032154;28;20398;-65
2023/05/23 02:50:52;;;;;;;17.77;8.55;;;;;;;15.41;100.00;101817.06;5041976;28;20049;-66
2023/05/23 02:53:21;;;;;;;16.90;8.90;;;;;;;15.44;100.00;101812.94;5051475;28;20041;-65
2023/05/23 02:55:49;;;;;;;18.27;8.95;;;;;;;15.41;100.00;101819.78;5052519;28;20099;-64
2023/05/23 02:58:16;;;;;;;16.83;8.70;;;;;;;15.35;100.00;101815.44;5051718;28;20037;-65
2023/05/23 03:00:44;;;;;;;15.70;7.90;;;;;;;15.34;100.00;101809.13;5059211;28;20049;-64
2023/05/23 03:03:12;;;;;;;15.27;7.55;;;;;;;15.30;100.00;101816.25;5038714;28;20046;-65
2023/05/23 03:05:40;;;;;;;12.60;7.47;;;;;;;15.26;100.00;101806.91;5032389;28;20478;-65
2023/05/23 03:08:08;;;;;;;12.65;7.03;;;;;;;15.19;100.00;101809.09;5016407;28;20044;-64
2023/05/23 03:10:36;;;;;;;13.38;7.00;;;;;;;15.21;100.00;101823.38;5052090;28;20116;-65
2023/05/23 03:13:04;;;;;;;11.85;6.70;;;;;;;15.20;100.00;101810.78;5053260;28;20068;-65
2023/05/23 03:15:33;;;;;;;13.00;6.78;;;;;;;15.14;100.00;101811.84;5051445;28;20060;-65
2023/05/23 03:18:01;;;;;;;11.43;5.93;;;;;;;15.13;100.00;101812.97;5052021;28;20059;-65
2023/05/23 03:20:31;;;;;;;12.60;6.70;;;;;;;15.13;100.00;101808.28;5070696;28;20040;-65
2023/05/23 03:22:58;;;;;;;9.43;5.53;;;;;;;15.11;100.00;101810.47;5034464;28;20041;-64
2023/05/23 03:25:26;;;;;;;9.10;4.85;;;;;;;15.12;100.00;101812.13;5052005;28;20115;-65
2023/05/23 03:27:54;;;;;;;13.27;5.68;;;;;;;15.13;100.00;101823.94;5052683;28;20068;-65
2023/05/23 03:30:22;;;;;;;10.40;5.50;;;;;;;15.13;100.00;101830.25;5032904;28;20548;-65
2023/05/23 03:32:50;;;;;;;12.10;6.47;;;;;;;15.15;100.00;101834.63;5024651;28;20068;-67
2023/05/23 03:35:18;;;;;;;11.65;6.05;;;;;;;15.16;100.00;101839.03;5052222;28;20461;-64
2023/05/23 03:37:45;;;;;;;13.50;6.43;;;;;;;15.13;100.00;101840.41;5035623;28;20053;-64
2023/05/23 03:40:13;;;;;;;14.82;6.00;;;;;;;15.12;100.00;101844.25;5072717;28;20049;-66
2023/05/23 03:42:41;;;;;;;11.63;5.63;;;;;;;15.11;100.00;101834.38;5067254;28;20056;-64
2023/05/23 03:45:11;;;;;;;12.38;6.28;;;;;;;15.07;100.00;101841.50;5056198;28;20048;-63
2023/05/23 03:47:39;;;;;;;12.00;5.50;;;;;;;15.05;100.00;101832.72;5056311;28;20382;-65
2023/05/23 03:50:07;;;;;;;12.88;5.65;;;;;;;15.07;100.00;101836.81;5040414;28;20049;-65
2023/05/23 03:52:36;;;;;;;12.75;5.70;;;;;;;15.11;100.00;101842.59;5055051;28;20076;-65
2023/05/23 03:55:04;;;;;;;13.93;5.93;;;;;;;15.12;100.00;101846.97;5055522;28;20106;-65
2023/05/23 03:57:32;;;;;;;13.18;6.35;;;;;;;15.09;100.00;101845.63;5055680;28;20111;-65
2023/05/23 03:59:59;;;;;;;13.25;5.93;;;;;;;15.12;100.00;101844.25;5073537;28;20064;-64
2023/05/23 04:02:27;;;;;;;12.10;5.90;;;;;;;15.16;100.00;101845.34;5055814;28;20113;-66
2023/05/23 04:04:55;;;;;;;13.27;6.38;;;;;;;15.15;100.00;101849.19;5032740;28;20568;-66
2023/05/23 04:07:25;;;;;;;12.57;5.85;;;;;;;15.15;100.00;101843.69;5033815;28;20068;-67
2023/05/23 04:09:53;;;;;;;10.98;6.20;;;;;;;15.14;100.00;101847.53;5049272;28;20053;-65
2023/05/23 04:12:20;;;;;;;13.35;6.32;;;;;;;15.17;100.00;101849.72;5036587;28;20049;-65
2023/05/23 04:14:49;;;;;;;13.70;6.10;;;;;;;15.19;100.00;101855.78;5032085;28;20405;-64
2023/05/23 04:17:17;;;;;;;12.65;5.82;;;;;;;15.23;100.00;101847.84;5032563;28;20133;-65
2023/05/23 04:19:45;;;;;;;15.18;6.50;;;;;;;15.26;100.00;101859.06;5054311;28;20040;-65
2023/05/23 04:22:13;;;;;;;14.15;6.28;;;;;;;15.29;100.00;101854.97;5006971;28;20152;-65
2023/05/23 04:24:40;;;;;;;10.88;5.40;;;;;;;15.26;100.00;101856.34;5042397;28;20049;-65
2023/05/23 04:27:09;;;;;;;12.48;6.13;;;;;;;15.24;100.00;101861.25;5016553;28;20371;-65
2023/05/23 04:29:37;;;;;;;12.90;6.28;;;;;;;15.22;100.00;101866.19;5047844;28;20513;-65
2023/05/23 04:32:06;;;;;;;11.82;6.18;;;;;;;15.21;100.00;101864.56;5053858;28;20044;-65
2023/05/23 04:34:34;;;;;;;19.83;6.95;;;;;;;15.17;100.00;101862.63;5037167;28;20562;-64
2023/05/23 04:37:02;;;;;;;14.07;6.53;;;;;;;15.11;100.00;101867.31;5034440;28;20045;-66
2023/05/23 04:39:30;;;;;;;14.93;6.75;;;;;;;15.09;100.00;101878.56;5071000;28;20048;-65
2023/05/23 04:42:23;;;;;;;16.63;7.38;;;;;;;15.07;100.00;101879.94;5077419;28;20415;-65
2023/05/23 04:45:13;;;;;;;19.33;7.70;;;;;;;14.98;100.00;101887.03;5069833;28;20162;-65
2023/05/23 04:48:04;;;;;;;22.63;7.47;;;;;;;14.93;100.00;101885.09;5052675;28;20504;-65
2023/05/23 04:50:36;;;;;;;18.67;8.10;;;;;;;14.89;100.00;101887.59;5056782;28;20055;-67
2023/05/23 04:53:04;;;;;;;17.83;7.93;;;;;;;14.84;100.00;101890.31;5038108;28;20576;-65
2023/05/23 04:55:33;;;;;;;16.85;8.05;;;;;;;14.83;100.00;101896.06;5073587;28;20110;-65
2023/05/23 04:58:02;;;;;;;18.45;7.93;;;;;;;14.82;100.00;101900.75;5056777;28;20048;-66
2023/05/23 05:00:30;;;;;;;19.25;8.63;;;;;;;14.81;100.00;101907.31;5053226;28;20177;-65
2023/05/23 05:02:57;;;;;;;18.83;7.75;;;;;;;14.83;100.00;101907.84;5054802;28;20066;-65
2023/05/23 05:05:28;;;;;;;20.00;8.52;;;;;;;14.83;100.00;101909.78;5038132;28;20457;-66
2023/05/23 05:07:56;;;;;;;19.77;8.18;;;;;;;14.76;100.00;101906.47;5033963;28;20056;-64
2023/05/23 05:10:23;;;;;;;22.85;8.93;;;;;;;14.77;100.00;101914.44;5033510;28;20050;-65
2023/05/23 05:12:51;;;;;;;18.63;9.23;;;;;;;14.69;100.00;101921.25;5032282;28;20362;-66
2023/05/23 05:15:19;;;;;;;19.52;8.63;;;;;;;14.67;100.00;101914.38;5038158;28;20064;-65
2023/05/23 05:17:52;;;;;;;25.83;9.70;;;;;;;14.64;100.00;101920.41;5037998;28;20041;-65
2023/05/23 05:20:21;;;;;;;20.60;9.20;;;;;;;14.65;100.00;101919.34;5070053;28;20051;-65
2023/05/23 05:22:56;;;;;;;23.63;9.65;;;;;;;14.67;100.00;101922.63;5053533;28;20045;-64
2023/05/23 05:25:26;;;;;;;22.65;7.97;;;;;;;14.69;100.00;101931.41;5070718;28;20051;-64
2023/05/23 05:27:54;;;;;;;22.50;9.30;;;;;;;14.62;100.00;101931.69;5072437;28;20140;-65
2023/05/23 05:30:22;;;;;;;26.20;9.68;;;;;;;14.60;100.00;101930.25;5056698;28;20040;-66
2023/05/23 05:32:56;;;;;;;22.05;9.23;;;;;;;14.52;100.00;101933.50;5042406;28;20486;-65
2023/05/23 05:35:25;;;;;;;21.30;8.50;;;;;;;14.50;100.00;101933.75;5034602;28;20452;-65
2023/05/23 05:37:52;;;;;;;30.08;10.73;;;;;;;14.49;100.00;101930.19;5060166;28;20059;-65
2023/05/23 05:40:32;;;;;;;22.17;8.70;;;;;;;14.56;100.00;101942.88;5043124;28;20099;-68
2023/05/23 05:43:01;;;;;;;20.67;8.07;;;;;;;14.54;100.00;101937.66;5062123;28;20045;-67
2023/05/23 05:45:29;;;;;;;19.70;7.88;;;;;;;14.53;100.00;101946.09;5078173;28;20040;-66
2023/05/23 05:47:58;;;;;;;21.67;9.25;;;;;;;14.45;100.00;101939.22;5057071;28;20052;-66
2023/05/23 05:50:26;;;;;;;23.30;9.80;;;;;;;14.43;100.00;101947.75;5076923;28;20055;-67
2023/05/23 05:52:54;;;;;;;25.27;9.68;;;;;;;14.43;100.00;101955.09;4681646;28;10000300;-67
2023/05/23 05:55:22;;;;;;;25.65;9.77;;;;;;;14.33;100.00;101964.09;5027563;28;20053;-66
2023/05/23 05:57:53;;;;;;;23.38;8.65;;;;;;;14.31;100.00;101955.34;5051824;28;20045;-66
2023/05/23 06:00:22;;;;;;;27.88;9.65;;;;;;;14.28;100.00;101972.31;5048057;28;20083;-66
2023/05/23 06:02:56;;;;;;;25.73;8.75;;;;;;;14.16;100.00;101974.41;5027042;28;20499;-66
2023/05/23 06:05:38;;;;;;;20.13;7.65;;;;;;;14.01;100.00;101975.97;5049828;28;20044;-66
2023/05/23 06:08:06;;;;;;;19.38;6.45;;;;;;;13.96;100.00;101973.19;5052765;28;20041;-66
2023/05/23 06:10:36;;;;;;;19.95;7.28;;;;;;;14.01;100.00;101970.47;5049640;28;20511;-67
2023/05/23 06:13:03;;;;;;;19.75;6.65;;;;;;;14.00;100.00;101988.03;5023541;28;20077;-66
2023/05/23 06:15:33;;;;;;;16.23;5.78;;;;;;;13.99;100.00;101975.41;5048523;28;20065;-66
2023/05/23 06:18:01;;;;;;;14.68;5.38;;;;;;;14.04;100.00;101988.31;5015856;28;20048;-67
2023/05/23 06:20:30;;;;;;;21.35;6.20;;;;;;;14.05;100.00;101979.84;5048547;28;20457;-66
2023/05/23 06:23:04;;;;;;;16.88;6.35;;;;;;;13.98;100.00;101984.72;5043694;28;20045;-66
2023/05/23 06:25:32;;;;;;;19.63;6.93;;;;;;;13.78;100.00;102000.97;5047688;28;20055;-66
2023/05/23 06:28:00;;;;;;;16.00;6.10;;;;;;;13.52;100.00;102003.50;5051255;28;20045;-67
2023/05/23 06:30:28;;;;;;;16.20;6.18;;;;;;;13.60;100.00;102005.75;5052012;28;20106;-65
2023/05/23 06:32:56;;;;;;;16.45;5.93;;;;;;;13.68;100.00;102006.38;5051124;28;20049;-66
2023/05/23 06:35:25;;;;;;;17.45;6.25;;;;;;;13.73;100.00;102011.88;5053382;28;20103;-65
2023/05/23 06:37:53;;;;;;;14.65;5.75;;;;;;;13.74;100.00;102016.31;5052312;28;20041;-66
2023/05/23 06:40:20;;;;;;;22.20;6.88;;;;;;;13.69;100.00;102014.34;5034791;28;20041;-66
2023/05/23 06:42:50;;;;;;;16.38;6.00;;;;;;;13.72;100.00;102018.47;5050986;28;20041;-65
2023/05/23 06:45:50;;;;;;;16.15;5.47;;;;;;;13.77;100.00;102015.78;5035200;28;20199;-65
2023/05/23 06:48:18;;;;;;;16.85;6.25;;;;;;;13.74;100.00;102016.31;5016034;28;20038;-65
2023/05/23 06:50:47;;;;;;;16.42;5.70;;;;;;;13.71;100.00;102027.75;5003398;28;20144;-65
2023/05/23 06:53:15;;;;;;;21.55;5.93;;;;;;;13.68;100.00;102028.28;5040513;28;20049;-64
2023/05/23 06:55:46;;;;;;;18.83;5.80;;;;;;;13.74;99.91;102028.06;5072378;28;20048;-66
2023/05/23 06:58:17;;;;;;;14.52;5.18;;;;;;;13.82;98.45;102021.28;5072127;28;20086;-65
2023/05/23 07:00:49;;;;;;;16.63;5.53;;;;;;;13.88;96.91;102033.13;5024625;28;20102;-65
2023/05/23 07:03:22;;;;;;;18.45;6.07;;;;;;;13.87;95.58;102042.44;5059861;28;20103;-65
2023/05/23 07:05:50;;;;;;;15.80;5.43;;;;;;;13.87;94.55;102058.88;5052036;28;20139;-63
2023/05/23 07:08:20;;;;;;;16.65;5.45;;;;;;;13.85;93.23;102040.78;5039456;28;20128;-64
2023/05/23 07:11:01;;;;;;;16.50;5.50;;;;;;;13.91;91.82;102047.13;5056868;28;20049;-65
2023/05/23 07:13:32;;;;;;;15.65;5.78;;;;;;;13.99;90.90;102056.78;5058703;28;20378;-65
2023/05/23 07:16:01;;;;;;;17.80;6.63;;;;;;;13.96;89.84;102052.66;5034449;28;20084;-66
2023/05/23 07:18:30;;;;;;;15.30;5.53;;;;;;;14.04;90.22;102057.66;5052647;28;20132;-65
2023/05/23 07:20:58;;;;;;;18.45;6.25;;;;;;;14.06;88.88;102052.72;5036018;28;20041;-65
2023/05/23 07:23:27;;;;;;;16.65;6.13;;;;;;;13.96;87.72;102054.56;5066486;28;20055;-64
2023/05/23 07:25:55;;;;;;;19.35;6.13;;;;;;;13.99;88.09;102052.13;5075745;28;20404;-65
2023/05/23 07:28:55;;;;;;;16.05;5.90;;;;;;;14.04;87.76;102043.94;5073438;28;20130;-66
2023/05/23 07:31:23;;;;;;;15.85;5.70;;;;;;;14.10;86.39;102044.84;5059381;28;20052;-65
2023/05/23 07:33:54;;;;;;;17.55;6.18;;;;;;;14.11;85.78;102053.88;5058120;28;20083;-65
2023/05/23 07:36:32;;;;;;;13.90;5.45;;;;;;;14.11;83.78;102053.88;5075885;28;20131;-65
2023/05/23 07:39:02;;;;;;;17.08;6.70;;;;;;;14.09;83.40;102059.59;5075866;28;20041;-65
2023/05/23 07:41:30;;;;;;;13.00;6.03;;;;;;;14.16;83.03;102065.69;5065688;28;20071;-66
2023/05/23 07:43:58;;;;;;;16.63;6.40;;;;;;;14.17;83.50;102080.25;5035303;28;20127;-65
2023/05/23 07:46:25;;;;;;;19.15;6.38;;;;;;;14.01;84.76;102063.66;5052000;28;20047;-65
2023/05/23 07:48:54;;;;;;;17.48;6.07;;;;;;;14.07;85.65;102076.31;5035342;28;20056;-65
2023/05/23 07:51:22;;;;;;;19.88;6.80;;;;;;;14.03;86.23;102075.19;5042847;28;20523;-64
2023/05/23 07:53:51;;;;;;;12.38;5.88;;;;;;;13.95;87.16;102081.16;5053805;28;20123;-65
2023/05/23 07:56:22;;;;;;;13.52;5.60;;;;;;;13.98;88.01;102088.03;5042636;28;20087;-66
2023/05/23 07:58:50;;;;;;;12.38;5.63;;;;;;;13.96;88.12;102081.97;5058791;28;20074;-65
2023/05/23 08:01:19;;;;;;;15.02;5.93;;;;;;;14.01;88.95;102076.53;5074485;28;20446;-67
2023/05/23 08:04:02;;;;;;;16.92;5.78;;;;;;;14.09;88.79;102077.97;5055588;28;20040;-65
2023/05/23 08:06:41;;;;;;;15.18;5.78;;;;;;;14.10;88.64;102074.97;5038891;28;20091;-66
2023/05/23 08:09:35;;;;;;;17.00;5.82;;;;;;;14.12;87.89;102081.03;5055919;28;20071;-67
2023/05/23 08:12:03;;;;;;;17.67;6.43;;;;;;;14.09;88.84;102088.94;5055967;28;20060;-66
2023/05/23 08:14:31;;;;;;;18.40;5.70;;;;;;;14.07;89.08;102081.00;5038744;28;20071;-66
2023/05/23 08:17:37;;;;;;;16.50;5.72;;;;;;;14.11;89.22;102089.50;5053864;28;20053;-65
2023/05/23 08:20:06;;;;;;;17.10;6.13;;;;;;;14.05;89.21;102083.16;5058808;28;20040;-65
2023/05/23 08:22:36;;;;;;;17.08;5.57;;;;;;;14.07;89.49;102086.47;5061863;28;20049;-65
2023/05/23 08:25:06;;;;;;;14.63;5.20;;;;;;;14.15;89.60;102088.72;5044169;28;20071;-65
2023/05/23 08:27:36;;;;;;;13.32;5.13;;;;;;;14.17;88.95;102096.69;5060411;28;20554;-65
2023/05/23 08:30:15;;;;;;;14.88;5.20;;;;;;;14.13;89.34;102093.63;5027104;28;20095;-65
2023/05/23 08:32:42;;;;;;;12.32;5.20;;;;;;;14.10;89.91;102096.09;5053969;28;20061;-66
2023/05/23 08:35:11;;;;;;;14.30;4.88;;;;;;;14.06;90.82;102101.25;5041268;28;20065;-66
2023/05/23 08:37:40;;;;;;;13.95;4.50;;;;;;;14.05;91.34;102102.34;5038931;28;20493;-67
2023/05/23 08:40:13;;;;;;;13.57;4.72;;;;;;;14.09;92.13;102110.84;5051638;28;20105;-64
2023/05/23 08:42:47;;;;;;;11.30;4.60;;;;;;;14.05;93.54;102105.91;5020824;28;20370;-66
2023/05/23 08:45:16;;;;;;;13.05;4.50;;;;;;;14.23;94.62;102112.09;5049507;28;20088;-65
2023/05/23 08:47:45;;;;;;;15.25;4.22;;;;;;;14.31;92.39;102097.91;5018097;28;20076;-65
2023/05/23 08:50:17;;;;;;;16.20;4.47;;;;;;;14.44;93.79;102102.13;5018692;28;20116;-65
2023/05/23 08:52:56;;;;;;;10.27;3.80;;;;;;;14.59;93.64;102107.72;5047370;28;20041;-65
2023/05/23 08:55:27;;;;;;;13.95;4.35;;;;;;;14.69;92.27;102112.47;5038008;28;20057;-65
2023/05/23 08:58:00;;;;;;;11.88;3.90;;;;;;;14.68;90.66;102111.66;5036869;28;20057;-67
2023/05/23 09:00:37;;;;;;;11.93;3.60;;;;;;;14.67;88.51;102106.41;5020123;28;20140;-67
2023/05/23 09:03:06;;;;;;;15.50;3.88;;;;;;;14.54;84.50;102115.94;5056738;28;20085;-67
2023/05/23 09:05:58;;;;;;;13.80;4.28;;;;;;;14.51;85.52;102118.34;5073586;28;20079;-64
2023/05/23 09:08:27;;;;;;;10.90;3.20;;;;;;;14.49;83.47;102122.16;5057373;28;20075;-63
2023/05/23 09:10:58;;;;;;;11.35;3.45;;;;;;;14.49;83.87;102133.13;5056337;28;20044;-65
2023/05/23 09:13:27;;;;;;;12.48;3.70;;;;;;;14.55;83.31;102119.50;5035824;28;20037;-65
2023/05/23 09:16:07;;;;;;;13.32;4.13;;;;;;;14.59;83.63;102120.63;5053308;28;20049;-66
2023/05/23 09:18:41;;;;;;;14.13;3.70;;;;;;;14.62;81.32;102122.84;5049663;28;20409;-65
2023/05/23 09:21:12;;;;;;;18.83;4.50;;;;;;;14.70;79.40;102125.09;5032106;28;20091;-64
2023/05/23 09:23:50;;;;;;;12.63;3.90;;;;;;;14.65;78.65;102120.41;5030104;28;20041;-65
2023/05/23 09:26:18;;;;;;;13.85;4.10;;;;;;;14.67;79.32;102136.59;5033571;28;20440;-64
2023/05/23 09:28:47;;;;;;;12.43;3.70;;;;;;;14.63;79.04;102132.75;5045198;28;20056;-65
2023/05/23 09:31:15;;;;;;;15.70;4.35;;;;;;;14.55;78.94;102152.41;5036967;28;20048;-65
2023/05/23 09:33:48;;;;;;;16.80;4.32;;;;;;;14.49;77.29;102135.88;5037465;28;20052;-65
2023/05/23 09:36:18;;;;;;;12.77;3.60;;;;;;;14.49;77.59;102146.84;5038762;28;20055;-65
2023/05/23 09:38:51;;;;;;;14.45;4.00;;;;;;;14.50;76.79;102142.19;5055620;28;20075;-66
2023/05/23 09:41:23;;;;;;;15.55;4.00;;;;;;;14.48;77.06;102139.72;5027628;28;20049;-65
2023/05/23 09:43:52;;;;;;;14.32;3.80;;;;;;;14.55;76.72;102133.22;5038838;28;20099;-65
2023/05/23 09:46:21;;;;;;;19.15;4.60;;;;;;;14.45;75.89;102137.50;5041556;28;20443;-65
2023/05/23 09:48:51;;;;;;;15.43;4.57;;;;;;;14.43;76.67;102139.69;5063116;28;20081;-65
2023/05/23 09:51:21;;;;;;;18.08;4.70;;;;;;;14.48;75.45;102134.25;5025668;28;20050;-65
2023/05/23 09:53:52;;;;;;;16.95;4.50;;;;;;;14.49;75.80;102127.66;5035862;28;20050;-65
2023/05/23 09:56:22;;;;;;;13.93;4.15;;;;;;;14.51;75.35;102145.78;5024137;28;20044;-65
2023/05/23 09:58:50;;;;;;;20.25;5.15;;;;;;;14.49;75.27;102152.34;5073546;28;20055;-65
2023/05/23 10:01:19;;;;;;;16.05;4.38;;;;;;;14.44;75.36;102141.31;5040281;28;20075;-66
2023/05/23 10:03:56;;;;;;;18.05;3.65;;;;;;;14.40;75.17;102147.59;5056204;28;20041;-66
2023/05/23 10:06:31;;;;;;;18.20;4.50;;;;;;;14.44;76.05;102141.31;5055287;28;20068;-65
2023/05/23 10:09:02;;;;;;;15.63;4.10;;;;;;;14.53;74.58;102155.41;5040602;28;20071;-67
2023/05/23 10:11:33;;;;;;;15.52;4.57;;;;;;;14.67;74.16;102134.69;5053917;28;20064;-65
2023/05/23 10:14:09;;;;;;;16.90;4.43;;;;;;;14.78;72.87;102129.28;5036400;28;20063;-65
2023/05/23 10:16:53;;;;;;;17.55;4.13;;;;;;;14.83;71.16;102140.28;5059288;28;20519;-65
2023/05/23 10:19:27;;;;;;;13.60;4.20;;;;;;;14.87;71.45;102138.66;5053105;28;20056;-65
2023/05/23 10:22:07;;;;;;;14.68;3.80;;;;;;;14.92;72.06;102141.44;5052533;28;20056;-66
2023/05/23 10:24:36;;;;;;;14.45;4.13;;;;;;;15.02;71.35;102146.97;5052567;28;20057;-66
2023/05/23 10:27:04;;;;;;;12.95;4.45;;;;;;;15.05;68.54;102145.63;5053495;28;20041;-64
2023/05/23 10:29:34;;;;;;;16.30;4.65;;;;;;;15.05;67.12;102145.63;5013724;28;20072;-65
2023/05/23 10:32:03;;;;;;;14.00;4.40;;;;;;;15.08;68.61;102145.09;5052352;28;20132;-65
2023/05/23 10:34:39;;;;;;;13.25;4.28;;;;;;;15.17;69.25;102151.72;5053521;28;20045;-66
2023/05/23 10:37:11;;;;;;;17.55;3.80;;;;;;;15.18;66.09;102156.13;5065447;28;20102;-65
2023/05/23 10:39:43;;;;;;;12.05;4.15;;;;;;;15.10;66.86;102167.59;5043128;28;20489;-66
2023/05/23 10:42:25;;;;;;;13.20;4.03;;;;;;;15.05;68.62;102142.88;5015820;28;20410;-66
2023/05/23 10:44:52;;;;;;;18.10;4.60;;;;;;;15.12;68.27;102146.22;5036275;28;20451;-64
2023/05/23 10:47:28;;;;;;;13.77;3.80;;;;;;;15.26;65.77;102147.38;5033499;28;20516;-64
2023/05/23 10:49:56;;;;;;;14.55;4.10;;;;;;;15.31;62.60;102144.66;5033545;28;20401;-66
2023/05/23 10:52:25;;;;;;;12.50;4.10;;;;;;;15.33;63.73;102128.75;5048984;28;20045;-64
2023/05/23 10:54:55;;;;;;;17.98;4.30;;;;;;;15.36;66.65;102140.28;5062188;28;20048;-65
2023/05/23 10:57:29;;;;;;;12.93;3.78;;;;;;;15.40;66.53;102124.94;5047786;28;20065;-63
2023/05/23 10:59:56;;;;;;;14.52;4.00;;;;;;;15.51;66.91;102137.59;5015572;28;20045;-66
2023/05/23 11:02:29;;;;;;;17.50;4.88;;;;;;;15.51;66.45;102138.44;5015799;28;20483;-66
2023/05/23 11:05:23;;;;;;;14.95;4.45;;;;;;;15.47;65.80;102129.09;5042724;28;20041;-66
2023/05/23 11:08:13;;;;;;;19.00;4.40;;;;;;;15.54;66.39;102153.56;5051595;28;20049;-67
2023/05/23 11:10:54;;;;;;;14.40;4.63;;;;;;;15.60;64.99;102136.00;5052235;28;20543;-67
2023/05/23 11:13:22;;;;;;;17.25;4.72;;;;;;;15.65;63.32;102148.91;5067080;28;20063;-66
2023/05/23 11:15:50;;;;;;;13.85;3.90;;;;;;;15.61;62.01;102134.91;5072137;28;20412;-66
2023/05/23 11:18:26;;;;;;;10.73;4.30;;;;;;;15.53;60.85;102138.97;5051701;28;20056;-65
2023/05/23 11:20:54;;;;;;;14.95;4.38;;;;;;;15.53;60.02;102154.63;5052680;28;20471;-66
2023/05/23 11:23:22;;;;;;;12.00;4.00;;;;;;;15.54;60.54;102128.84;5046992;28;20094;-65
2023/05/23 11:25:52;;;;;;;15.95;4.45;;;;;;;15.58;59.25;102137.34;5073152;28;20044;-65
2023/05/23 11:28:20;;;;;;;15.63;3.60;;;;;;;15.64;59.47;102142.59;5035358;28;20072;-66